createdAt,value
2023-03-11T00:00:13.546Z,1.33
2023-03-11T00:01:15.500Z,1.80
2023-03-11T00:02:18.014Z,1.88
2023-03-11T00:03:23.108Z,1.45
2023-03-11T00:04:25.954Z,1.65
2023-03-11T00:05:29.736Z,1.92
2023-03-11T00:06:32.457Z,1.85
2023-03-11T00:07:34.269Z,2.03
2023-03-11T00:08:37.224Z,1.80
2023-03-11T00:09:39.111Z,1.83
2023-03-11T00:10:43.819Z,2.28
2023-03-11T00:11:46.756Z,2.03
2023-03-11T00:12:49.201Z,1.63
2023-03-11T00:13:51.715Z,2.10
2023-03-11T00:14:53.274Z,2.10
2023-03-11T00:15:57.027Z,2.47
2023-03-11T00:16:58.562Z,2.60
2023-03-11T00:18:01.449Z,2.15
2023-03-11T00:19:03.027Z,2.22
2023-03-11T00:20:07.207Z,2.22
2023-03-11T00:21:16.039Z,2.50
2023-03-11T00:22:17.685Z,2.80
2023-03-11T00:23:20.221Z,2.65
2023-03-11T00:24:21.940Z,2.63
2023-03-11T00:25:27.092Z,2.97
2023-03-11T00:26:29.569Z,2.97
2023-03-11T00:27:32.493Z,3.20
2023-03-11T00:28:35.277Z,2.80
2023-03-11T00:29:36.816Z,2.92
2023-03-11T00:30:40.376Z,2.80
2023-03-11T00:31:42.018Z,3.22
2023-03-11T00:32:44.832Z,2.97
2023-03-11T00:33:47.439Z,3.05
2023-03-11T00:34:49.268Z,3.13
2023-03-11T00:35:52.447Z,3.10
2023-03-11T00:36:54.101Z,3.00
2023-03-11T00:37:58.835Z,3.25
2023-03-11T00:39:02.121Z,3.33
2023-03-11T00:40:08.492Z,3.30
2023-03-11T00:41:10.989Z,3.20
2023-03-11T00:42:12.736Z,3.40
2023-03-11T00:43:17.570Z,3.78
2023-03-11T00:44:19.384Z,3.90
2023-03-11T00:45:22.138Z,3.72
2023-03-11T00:46:23.689Z,3.75
2023-03-11T00:47:26.283Z,4.00
2023-03-11T00:48:27.922Z,4.35
2023-03-11T00:49:30.563Z,3.95
2023-03-11T00:50:35.166Z,3.55
2023-03-11T00:51:37.940Z,3.60
2023-03-11T00:52:39.548Z,4.03
2023-03-11T00:53:43.012Z,3.85
2023-03-11T00:54:46.143Z,4.50
2023-03-11T00:55:48.769Z,4.30
2023-03-11T00:56:50.328Z,4.10
2023-03-11T00:57:54.074Z,4.47
2023-03-11T00:58:57.378Z,4.50
2023-03-11T01:00:00.681Z,4.10
2023-03-11T01:01:08.979Z,4.13
2023-03-11T01:02:14.332Z,4.40
2023-03-11T01:03:16.820Z,4.38
2023-03-11T01:04:18.473Z,3.90
2023-03-11T01:05:22.580Z,4.10
2023-03-11T01:06:26.131Z,4.15
2023-03-11T01:07:30.510Z,3.78
2023-03-11T01:08:32.594Z,3.85
2023-03-11T01:09:35.386Z,4.30
2023-03-11T01:10:37.499Z,4.10
2023-03-11T01:11:40.139Z,3.10
2023-03-11T01:12:43.220Z,3.53
2023-03-11T01:13:45.954Z,3.30
2023-03-11T01:14:49.047Z,3.75
2023-03-11T01:15:51.587Z,3.40
2023-03-11T01:16:53.875Z,3.38
2023-03-11T01:17:56.852Z,3.42
2023-03-11T01:18:58.463Z,3.28
2023-03-11T01:20:01.072Z,3.63
2023-03-11T01:21:02.885Z,3.35
2023-03-11T01:22:05.561Z,3.15
2023-03-11T01:23:07.932Z,3.53
2023-03-11T01:24:10.631Z,2.90
2023-03-11T01:25:13.983Z,2.95
2023-03-11T01:26:16.700Z,3.20
2023-03-11T01:27:18.218Z,2.63
2023-03-11T01:28:20.698Z,3.50
2023-03-11T01:29:22.521Z,2.63
2023-03-11T01:30:27.763Z,2.70
2023-03-11T01:31:29.362Z,2.40
2023-03-11T01:32:31.945Z,3.05
2023-03-11T01:33:33.524Z,2.80
2023-03-11T01:34:36.228Z,2.55
2023-03-11T01:35:40.126Z,2.60
2023-03-11T01:36:43.236Z,2.70
2023-03-11T01:37:44.983Z,2.50
2023-03-11T01:38:47.960Z,2.80
2023-03-11T01:39:49.572Z,2.58
2023-03-11T01:40:53.017Z,2.50
2023-03-11T01:41:56.081Z,2.72
2023-03-11T01:42:59.443Z,2.65
2023-03-11T01:44:00.993Z,2.47
2023-03-11T01:45:04.093Z,2.42
2023-03-11T01:46:24.591Z,2.45
2023-03-11T01:47:36.978Z,2.17
2023-03-11T01:48:39.122Z,2.70
2023-03-11T01:49:42.662Z,2.60
2023-03-11T01:50:49.594Z,2.50
2023-03-11T01:51:55.749Z,2.80
2023-03-11T01:52:57.452Z,2.80
2023-03-11T01:54:03.508Z,3.33
2023-03-11T01:55:06.739Z,3.08
2023-03-11T01:56:09.987Z,3.15
2023-03-11T01:57:13.729Z,3.65
2023-03-11T01:58:21.677Z,3.97
2023-03-11T01:59:27.227Z,3.08
2023-03-11T02:00:29.798Z,3.35
2023-03-11T02:01:33.027Z,3.88
2023-03-11T02:02:41.680Z,4.00
2023-03-11T02:03:43.499Z,3.35
2023-03-11T02:04:46.086Z,3.60
2023-03-11T02:05:49.350Z,3.53
2023-03-11T02:06:54.074Z,4.28
2023-03-11T02:07:55.991Z,4.05
2023-03-11T02:08:58.936Z,4.00
2023-03-11T02:10:00.643Z,4.28
2023-03-11T02:11:06.186Z,4.03
2023-03-11T02:12:10.904Z,3.83
2023-03-11T02:13:13.521Z,3.92
2023-03-11T02:14:15.345Z,4.38
2023-03-11T02:15:18.097Z,4.07
2023-03-11T02:16:19.813Z,4.25
2023-03-11T02:17:23.876Z,3.80
2023-03-11T02:18:25.613Z,4.18
2023-03-11T02:19:40.027Z,4.22
2023-03-11T02:20:47.333Z,4.32
2023-03-11T02:21:50.840Z,4.45
2023-03-11T02:22:57.099Z,3.97
2023-03-11T02:24:08.859Z,3.63
2023-03-11T02:25:18.565Z,3.90
2023-03-11T02:26:25.988Z,3.20
2023-03-11T02:27:32.938Z,4.35
2023-03-11T02:28:37.229Z,4.28
2023-03-11T02:29:41.515Z,4.50
2023-03-11T02:30:45.660Z,4.35
2023-03-11T02:31:48.564Z,4.28
2023-03-11T02:32:51.645Z,4.43
2023-03-11T02:33:54.859Z,4.10
2023-03-11T02:34:57.366Z,4.13
2023-03-11T02:35:59.453Z,4.22
2023-03-11T02:37:05.679Z,3.78
2023-03-11T02:38:07.480Z,3.90
2023-03-11T02:39:11.191Z,4.20
2023-03-11T02:40:57.225Z,4.30
2023-03-11T02:41:59.746Z,4.07
2023-03-11T02:43:06.671Z,3.80
2023-03-11T02:44:11.703Z,4.20
2023-03-11T02:45:16.569Z,3.88
2023-03-11T02:46:20.390Z,4.53
2023-03-11T02:47:22.221Z,3.92
2023-03-11T02:48:24.992Z,4.43
2023-03-11T02:49:26.975Z,4.20
2023-03-11T02:50:30.360Z,3.95
2023-03-11T02:51:32.857Z,3.95
2023-03-11T02:52:36.317Z,4.10
2023-03-11T02:53:45.856Z,3.78
2023-03-11T02:54:47.358Z,4.20
2023-03-11T02:55:49.932Z,3.95
2023-03-11T02:56:51.470Z,4.20
2023-03-11T02:57:53.997Z,3.55
2023-03-11T02:58:57.269Z,3.85
2023-03-11T03:00:02.241Z,3.67
2023-03-11T03:01:04.501Z,3.70
2023-03-11T03:02:07.067Z,3.72
2023-03-11T03:03:10.624Z,3.67
2023-03-11T03:04:13.145Z,3.70
2023-03-11T03:05:14.684Z,3.30
2023-03-11T03:06:17.428Z,3.78
2023-03-11T03:07:19.256Z,3.35
2023-03-11T03:08:21.706Z,3.25
2023-03-11T03:09:23.216Z,3.40
2023-03-11T03:10:25.960Z,3.33
2023-03-11T03:11:27.577Z,3.20
2023-03-11T03:12:30.096Z,3.55
2023-03-11T03:13:32.933Z,3.20
2023-03-11T03:14:35.894Z,3.33
2023-03-11T03:15:38.448Z,2.85
2023-03-11T03:16:40.065Z,3.58
2023-03-11T03:17:42.823Z,3.53
2023-03-11T03:18:44.444Z,3.33
2023-03-11T03:19:47.143Z,2.88
2023-03-11T03:20:48.666Z,2.90
2023-03-11T03:21:51.156Z,2.90
2023-03-11T03:22:52.753Z,2.83
2023-03-11T03:23:55.242Z,3.25
2023-03-11T03:24:56.778Z,3.10
2023-03-11T03:25:59.229Z,3.10
2023-03-11T03:27:00.838Z,2.70
2023-03-11T03:28:03.377Z,2.95
2023-03-11T03:29:04.916Z,3.03
2023-03-11T03:30:10.816Z,2.80
2023-03-11T03:31:12.454Z,2.63
2023-03-11T03:32:14.959Z,2.67
2023-03-11T03:33:16.732Z,2.90
2023-03-11T03:34:19.269Z,2.83
2023-03-11T03:35:20.916Z,2.70
2023-03-11T03:36:23.814Z,3.03
2023-03-11T03:37:27.335Z,2.85
2023-03-11T03:38:29.862Z,3.00
2023-03-11T03:39:33.033Z,2.78
2023-03-11T03:40:35.737Z,2.38
2023-03-11T03:41:37.322Z,2.40
2023-03-11T03:42:39.884Z,2.60
2023-03-11T03:43:41.525Z,2.65
2023-03-11T03:44:44.036Z,2.50
2023-03-11T03:45:55.457Z,2.72
2023-03-11T03:46:58.085Z,2.83
2023-03-11T03:47:59.894Z,2.80
2023-03-11T03:49:02.376Z,2.08
2023-03-11T03:50:05.125Z,2.22
2023-03-11T03:51:10.245Z,2.60
2023-03-11T03:52:12.064Z,2.58
2023-03-11T03:53:14.508Z,2.40
2023-03-11T03:54:16.261Z,2.97
2023-03-11T03:55:18.852Z,2.03
2023-03-11T03:56:20.414Z,2.47
2023-03-11T03:57:22.905Z,2.35
2023-03-11T03:58:24.403Z,2.70
2023-03-11T03:59:26.858Z,2.58
2023-03-11T04:00:28.541Z,2.35
2023-03-11T04:01:32.382Z,2.38
2023-03-11T04:02:33.941Z,2.50
2023-03-11T04:03:38.186Z,2.70
2023-03-11T04:04:39.883Z,2.83
2023-03-11T04:05:42.341Z,2.53
2023-03-11T04:06:43.848Z,2.60
2023-03-11T04:07:46.355Z,2.42
2023-03-11T04:08:48.086Z,2.30
2023-03-11T04:09:50.528Z,2.63
2023-03-11T04:10:58.224Z,2.45
2023-03-11T04:12:01.154Z,2.90
2023-03-11T04:13:03.053Z,2.67
2023-03-11T04:14:06.605Z,3.00
2023-03-11T04:15:09.772Z,2.50
2023-03-11T04:16:17.655Z,2.45
2023-03-11T04:17:22.048Z,2.10
2023-03-11T04:18:23.687Z,2.38
2023-03-11T04:19:26.260Z,2.20
2023-03-11T04:20:27.755Z,2.60
2023-03-11T04:21:30.299Z,2.25
2023-03-11T04:22:31.822Z,2.40
2023-03-11T04:23:34.940Z,2.53
2023-03-11T04:24:36.579Z,2.10
2023-03-11T04:25:39.172Z,2.40
2023-03-11T04:26:40.712Z,2.85
2023-03-11T04:27:46.227Z,2.70
2023-03-11T04:28:47.929Z,2.42
2023-03-11T04:29:50.402Z,2.45
2023-03-11T04:30:52.394Z,2.53
2023-03-11T04:31:55.035Z,2.15
2023-03-11T04:32:57.926Z,2.22
2023-03-11T04:34:00.479Z,2.10
2023-03-11T04:35:02.213Z,2.30
2023-03-11T04:36:06.976Z,2.28
2023-03-11T04:37:08.799Z,2.50
2023-03-11T04:38:11.324Z,2.35
2023-03-11T04:39:12.918Z,2.38
2023-03-11T04:40:16.025Z,2.40
2023-03-11T04:41:17.644Z,2.50
2023-03-11T04:42:20.154Z,2.25
2023-03-11T04:43:21.662Z,2.47
2023-03-11T04:44:24.308Z,2.13
2023-03-11T04:45:25.841Z,2.10
2023-03-11T04:46:28.826Z,2.40
2023-03-11T04:47:30.647Z,2.50
2023-03-11T04:48:34.499Z,2.83
2023-03-11T04:49:36.226Z,2.30
2023-03-11T04:50:38.729Z,2.15
2023-03-11T04:51:40.270Z,2.30
2023-03-11T04:52:42.743Z,2.20
2023-03-11T04:53:44.430Z,2.30
2023-03-11T04:54:46.889Z,2.88
2023-03-11T04:55:48.482Z,2.22
2023-03-11T04:56:51.006Z,2.55
2023-03-11T04:57:52.551Z,2.50
2023-03-11T04:58:55.021Z,2.35
2023-03-11T04:59:56.567Z,2.40
2023-03-11T05:00:59.051Z,2.33
2023-03-11T05:02:00.618Z,2.30
2023-03-11T05:03:03.187Z,2.15
2023-03-11T05:04:06.246Z,2.05
2023-03-11T05:05:10.706Z,2.30
2023-03-11T05:06:12.318Z,2.30
2023-03-11T05:07:15.249Z,2.30
2023-03-11T05:08:16.808Z,2.35
2023-03-11T05:09:19.741Z,2.42
2023-03-11T05:10:22.600Z,1.83
2023-03-11T05:11:25.284Z,2.28
2023-03-11T05:12:26.992Z,2.22
2023-03-11T05:13:29.626Z,2.45
2023-03-11T05:14:31.158Z,2.53
2023-03-11T05:15:33.681Z,2.38
2023-03-11T05:16:35.195Z,2.22
2023-03-11T05:17:37.671Z,2.20
2023-03-11T05:18:39.183Z,2.00
2023-03-11T05:19:43.091Z,1.90
2023-03-11T05:20:45.052Z,2.35
2023-03-11T05:21:47.831Z,1.90
2023-03-11T05:22:49.439Z,2.20
2023-03-11T05:23:52.085Z,1.73
2023-03-11T05:24:53.855Z,2.17
2023-03-11T05:25:56.339Z,1.92
2023-03-11T05:27:02.191Z,2.10
2023-03-11T05:28:04.946Z,2.10
2023-03-11T05:29:06.711Z,2.08
2023-03-11T05:30:10.483Z,1.83
2023-03-11T05:31:12.409Z,1.60
2023-03-11T05:32:15.345Z,1.92
2023-03-11T05:33:35.335Z,1.95
2023-03-11T05:34:37.883Z,2.10
2023-03-11T05:35:42.897Z,2.20
2023-03-11T05:36:45.025Z,2.10
2023-03-11T05:37:49.781Z,2.10
2023-03-11T05:38:53.309Z,2.17
2023-03-11T05:39:55.838Z,2.05
2023-03-11T05:40:57.380Z,2.05
2023-03-11T05:41:59.866Z,2.10
2023-03-11T05:43:01.467Z,2.20
2023-03-11T05:44:04.195Z,1.98
2023-03-11T05:45:06.511Z,1.98
2023-03-11T05:46:09.800Z,1.95
2023-03-11T05:47:11.568Z,2.15
2023-03-11T05:48:14.050Z,1.75
2023-03-11T05:49:15.554Z,1.77
2023-03-11T05:50:18.262Z,1.70
2023-03-11T05:51:21.308Z,1.80
2023-03-11T05:52:23.881Z,1.90
2023-03-11T05:53:25.446Z,2.38
2023-03-11T05:54:28.144Z,1.98
2023-03-11T05:55:29.787Z,1.70
2023-03-11T05:56:35.782Z,1.90
2023-03-11T05:57:37.312Z,1.65
2023-03-11T05:58:39.896Z,1.63
2023-03-11T05:59:41.603Z,1.80
2023-03-11T06:00:44.350Z,2.03
2023-03-11T06:01:45.952Z,1.60
2023-03-11T06:02:48.482Z,1.75
2023-03-11T06:03:50.170Z,2.00
2023-03-11T06:04:53.280Z,2.10
2023-03-11T06:05:55.885Z,1.60
2023-03-11T06:06:59.713Z,1.90
2023-03-11T06:08:02.288Z,1.85
2023-03-11T06:09:04.214Z,2.05
2023-03-11T06:10:07.992Z,1.80
2023-03-11T06:11:11.000Z,2.30
2023-03-11T06:12:13.548Z,1.75
2023-03-11T06:13:15.253Z,1.80
2023-03-11T06:14:17.768Z,1.90
2023-03-11T06:15:19.282Z,1.90
2023-03-11T06:16:22.164Z,1.95
2023-03-11T06:17:24.079Z,1.80
2023-03-11T06:18:27.430Z,1.70
2023-03-11T06:19:28.979Z,2.15
2023-03-11T06:20:32.330Z,1.80
2023-03-11T06:21:33.884Z,1.63
2023-03-11T06:22:40.030Z,1.98
2023-03-11T06:23:41.945Z,1.92
2023-03-11T06:24:44.463Z,2.20
2023-03-11T06:25:55.693Z,2.22
2023-03-11T06:26:58.258Z,2.05
2023-03-11T06:27:59.837Z,1.50
2023-03-11T06:29:02.356Z,1.77
2023-03-11T06:30:07.753Z,1.55
2023-03-11T06:31:11.882Z,1.80
2023-03-11T06:32:13.564Z,1.63
2023-03-11T06:33:16.140Z,1.60
2023-03-11T06:34:17.766Z,1.45
2023-03-11T06:35:20.284Z,1.90
2023-03-11T06:36:22.610Z,2.05
2023-03-11T06:37:28.317Z,1.73
2023-03-11T06:38:31.536Z,1.40
2023-03-11T06:39:34.085Z,1.48
2023-03-11T06:40:37.014Z,1.60
2023-03-11T06:41:39.704Z,1.95
2023-03-11T06:42:41.276Z,1.58
2023-03-11T06:43:43.770Z,1.52
2023-03-11T06:44:47.218Z,1.50
2023-03-11T06:45:49.810Z,1.25
2023-03-11T06:46:51.540Z,1.35
2023-03-11T06:47:54.228Z,1.63
2023-03-11T06:48:55.803Z,1.45
2023-03-11T06:49:58.378Z,1.50
2023-03-11T06:51:01.214Z,1.42
2023-03-11T06:52:03.790Z,1.42
2023-03-11T06:53:07.608Z,1.48
2023-03-11T06:54:12.181Z,1.58
2023-03-11T06:55:13.738Z,1.50
2023-03-11T06:56:16.170Z,1.77
2023-03-11T06:57:17.687Z,1.48
2023-03-11T06:58:41.731Z,1.40
2023-03-11T06:59:43.516Z,1.45
2023-03-11T07:00:46.000Z,1.45
2023-03-11T07:01:48.801Z,1.50
2023-03-11T07:02:50.350Z,1.40
2023-03-11T07:03:53.367Z,1.63
2023-03-11T07:04:55.008Z,1.63
2023-03-11T07:05:57.937Z,1.60
2023-03-11T07:07:01.636Z,1.65
2023-03-11T07:08:03.230Z,1.58
2023-03-11T07:09:05.951Z,1.45
2023-03-11T07:10:10.411Z,1.75
2023-03-11T07:11:15.748Z,1.55
2023-03-11T07:12:18.436Z,1.65
2023-03-11T07:13:19.997Z,1.65
2023-03-11T07:14:23.205Z,1.70
2023-03-11T07:15:24.709Z,1.95
2023-03-11T07:16:28.970Z,1.90
2023-03-11T07:17:30.780Z,1.50
2023-03-11T07:18:33.748Z,1.90
2023-03-11T07:19:39.725Z,2.30
2023-03-11T07:20:42.375Z,2.42
2023-03-11T07:21:44.947Z,2.72
2023-03-11T07:22:47.677Z,2.38
2023-03-11T07:23:53.853Z,2.35
2023-03-11T07:24:55.432Z,2.28
2023-03-11T07:25:59.837Z,1.83
2023-03-11T07:27:01.619Z,2.10
2023-03-11T07:28:04.541Z,1.92
2023-03-11T07:29:07.173Z,1.98
2023-03-11T07:30:11.391Z,2.17
2023-03-11T07:31:16.905Z,1.63
2023-03-11T07:32:19.027Z,1.50
2023-03-11T07:33:24.058Z,1.70
2023-03-11T07:34:25.665Z,1.70
2023-03-11T07:35:28.130Z,1.52
2023-03-11T07:36:29.816Z,1.95
2023-03-11T07:37:32.351Z,1.60
2023-03-11T07:38:33.919Z,1.50
2023-03-11T07:39:36.432Z,1.48
2023-03-11T07:40:38.203Z,1.48
2023-03-11T07:41:42.659Z,1.58
2023-03-11T07:42:44.179Z,1.40
2023-03-11T07:43:46.921Z,1.73
2023-03-11T07:44:51.631Z,1.40
2023-03-11T07:45:54.928Z,1.85
2023-03-11T07:46:57.444Z,1.50
2023-03-11T07:47:59.214Z,2.03
2023-03-11T07:49:03.606Z,1.40
2023-03-11T07:50:06.315Z,1.80
2023-03-11T07:51:11.770Z,1.50
2023-03-11T07:52:13.283Z,1.52
2023-03-11T07:53:15.795Z,1.73
2023-03-11T07:54:18.316Z,1.30
2023-03-11T07:55:19.929Z,2.08
2023-03-11T07:56:24.653Z,1.67
2023-03-11T07:57:27.878Z,1.60
2023-03-11T07:58:30.839Z,1.60
2023-03-11T07:59:32.361Z,1.65
2023-03-11T08:00:35.175Z,2.00
2023-03-11T08:01:36.864Z,1.95
2023-03-11T08:02:40.053Z,2.00
2023-03-11T08:03:42.802Z,1.67
2023-03-11T08:04:45.592Z,2.00
2023-03-11T08:05:47.179Z,1.73
2023-03-11T08:06:49.865Z,2.53
2023-03-11T08:07:52.363Z,1.85
2023-03-11T08:08:54.141Z,2.15
2023-03-11T08:09:56.709Z,1.90
2023-03-11T08:10:58.376Z,1.55
2023-03-11T08:12:01.063Z,2.03
2023-03-11T08:13:04.245Z,2.58
2023-03-11T08:14:07.562Z,2.08
2023-03-11T08:15:10.373Z,2.25
2023-03-11T08:16:15.592Z,2.47
2023-03-11T08:17:17.160Z,1.85
2023-03-11T08:18:19.921Z,2.05
2023-03-11T08:19:21.473Z,1.50
2023-03-11T08:20:24.010Z,2.67
2023-03-11T08:21:28.966Z,1.98
2023-03-11T08:22:31.429Z,2.40
2023-03-11T08:23:33.280Z,1.80
2023-03-11T08:24:35.991Z,1.90
2023-03-11T08:25:39.045Z,1.80
2023-03-11T08:26:42.588Z,1.70
2023-03-11T08:27:44.248Z,1.77
2023-03-11T08:28:49.025Z,1.77
2023-03-11T08:29:50.567Z,2.05
2023-03-11T08:30:53.367Z,1.92
2023-03-11T08:31:54.990Z,1.80
2023-03-11T08:32:57.489Z,1.75
2023-03-11T08:34:02.573Z,2.30
2023-03-11T08:35:05.015Z,2.40
2023-03-11T08:36:08.104Z,1.80
2023-03-11T08:37:10.051Z,1.88
2023-03-11T08:38:12.598Z,1.85
2023-03-11T08:39:15.494Z,1.70
2023-03-11T08:40:18.579Z,1.45
2023-03-11T08:41:21.423Z,1.65
2023-03-11T08:42:24.131Z,1.45
2023-03-11T08:43:25.662Z,1.77
2023-03-11T08:44:29.807Z,1.70
2023-03-11T08:45:31.643Z,1.77
2023-03-11T08:46:36.471Z,1.73
2023-03-11T08:47:38.738Z,1.42
2023-03-11T08:48:41.213Z,1.55
2023-03-11T08:49:43.098Z,1.65
2023-03-11T08:50:53.762Z,1.85
2023-03-11T08:51:56.716Z,1.60
2023-03-11T08:53:00.568Z,1.58
2023-03-11T08:54:03.870Z,1.42
2023-03-11T08:55:08.337Z,1.77
2023-03-11T08:56:11.214Z,1.77
2023-03-11T08:57:13.697Z,2.17
2023-03-11T08:58:15.222Z,1.50
2023-03-11T08:59:17.784Z,1.60
2023-03-11T09:00:22.203Z,1.30
2023-03-11T09:01:25.567Z,1.60
2023-03-11T09:02:28.761Z,1.42
2023-03-11T09:03:31.770Z,1.77
2023-03-11T09:04:34.358Z,1.80
2023-03-11T09:05:37.274Z,1.83
2023-03-11T09:06:43.637Z,1.55
2023-03-11T09:07:45.523Z,1.75
2023-03-11T09:08:49.670Z,1.55
2023-03-11T09:09:52.483Z,2.00
2023-03-11T09:10:54.116Z,1.73
2023-03-11T09:11:56.543Z,1.75
2023-03-11T09:12:58.150Z,2.15
2023-03-11T09:14:00.864Z,1.80
2023-03-11T09:15:02.624Z,1.80
2023-03-11T09:16:08.520Z,1.77
2023-03-11T09:17:14.545Z,1.50
2023-03-11T09:18:17.057Z,1.55
2023-03-11T09:19:19.625Z,1.70
2023-03-11T09:20:22.154Z,1.67
2023-03-11T09:21:24.848Z,1.98
2023-03-11T09:22:27.357Z,1.45
2023-03-11T09:23:30.874Z,1.73
2023-03-11T09:24:34.259Z,1.80
2023-03-11T09:25:36.888Z,1.45
2023-03-11T09:26:38.484Z,1.42
2023-03-11T09:27:41.967Z,1.83
2023-03-11T09:28:47.182Z,1.60
2023-03-11T09:29:49.691Z,1.48
2023-03-11T09:30:51.275Z,1.45
2023-03-11T09:31:55.367Z,1.42
2023-03-11T09:32:57.158Z,1.75
2023-03-11T09:33:59.684Z,1.60
2023-03-11T09:35:01.282Z,2.00
2023-03-11T09:36:03.904Z,2.03
2023-03-11T09:37:06.594Z,1.98
2023-03-11T09:38:08.165Z,1.80
2023-03-11T09:39:11.359Z,1.85
2023-03-11T09:40:17.650Z,1.52
2023-03-11T09:41:28.317Z,1.83
2023-03-11T09:42:39.558Z,1.45
2023-03-11T09:43:51.893Z,1.88
2023-03-11T09:45:04.838Z,1.55
2023-03-11T09:46:27.326Z,1.42
2023-03-11T09:47:39.749Z,1.48
2023-03-11T09:48:47.344Z,1.63
2023-03-11T09:50:04.883Z,1.67
2023-03-11T09:51:17.459Z,1.40
2023-03-11T09:52:30.748Z,1.85
2023-03-11T09:53:40.106Z,1.80
2023-03-11T09:54:46.388Z,1.77
2023-03-11T09:55:54.649Z,1.63
2023-03-11T09:56:57.430Z,1.75
2023-03-11T09:58:05.273Z,1.90
2023-03-11T09:59:14.266Z,1.70
2023-03-11T10:00:21.318Z,1.73
2023-03-11T10:01:28.593Z,1.60
2023-03-11T10:02:34.194Z,1.48
2023-03-11T10:03:39.858Z,1.88
2023-03-11T10:04:51.503Z,1.70
2023-03-11T10:06:00.738Z,1.58
2023-03-11T10:07:12.269Z,1.60
2023-03-11T10:08:23.664Z,1.92
2023-03-11T10:09:35.170Z,1.50
2023-03-11T10:10:46.918Z,1.70
2023-03-11T10:11:59.354Z,2.08
2023-03-11T10:13:13.407Z,2.00
2023-03-11T10:14:29.022Z,1.70
2023-03-11T10:15:48.294Z,2.00
2023-03-11T10:17:01.792Z,1.70
2023-03-11T10:18:25.834Z,2.22
2023-03-11T10:19:44.308Z,2.35
2023-03-11T10:20:54.395Z,2.10
2023-03-11T10:22:03.840Z,4.20
2023-03-11T10:23:20.474Z,2.38
2023-03-11T10:24:38.293Z,2.42
2023-03-11T10:25:51.066Z,2.22
2023-03-11T10:26:56.885Z,1.90
2023-03-11T10:28:06.580Z,1.90
2023-03-11T10:29:16.725Z,2.30
2023-03-11T10:30:26.938Z,1.92
2023-03-11T10:31:34.991Z,2.53
2023-03-11T10:32:42.685Z,2.30
2023-03-11T10:33:48.973Z,2.03
2023-03-11T10:34:58.534Z,2.35
2023-03-11T10:36:06.101Z,2.50
2023-03-11T10:37:14.081Z,2.60
2023-03-11T10:38:20.563Z,2.30
2023-03-11T10:39:23.343Z,2.10
2023-03-11T10:40:31.298Z,2.47
2023-03-11T10:41:48.469Z,2.45
2023-03-11T10:42:52.944Z,2.47
2023-03-11T10:44:00.614Z,2.63
2023-03-11T10:45:02.377Z,2.35
2023-03-11T10:46:10.224Z,2.40
2023-03-11T10:47:18.181Z,2.70
2023-03-11T10:48:21.135Z,2.20
2023-03-11T10:49:23.746Z,2.30
2023-03-11T10:50:26.647Z,2.50
2023-03-11T10:51:35.375Z,2.50
2023-03-11T10:52:44.889Z,2.33
2023-03-11T10:53:49.214Z,2.50
2023-03-11T10:55:02.844Z,2.55
2023-03-11T10:56:06.097Z,2.40
2023-03-11T10:57:23.043Z,2.50
2023-03-11T10:58:29.497Z,3.00
2023-03-11T10:59:35.005Z,2.92
2023-03-11T11:00:36.553Z,3.00
2023-03-11T11:01:39.179Z,2.88
2023-03-11T11:02:49.658Z,3.33
2023-03-11T11:03:55.954Z,2.60
2023-03-11T11:05:25.053Z,3.70
2023-03-11T11:06:31.989Z,3.08
2023-03-11T11:07:35.371Z,3.15
2023-03-11T11:08:37.898Z,2.60
2023-03-11T11:09:39.407Z,3.17
2023-03-11T11:10:51.377Z,3.00
2023-03-11T11:12:05.494Z,3.28
2023-03-11T11:13:19.661Z,2.72
2023-03-11T11:14:24.035Z,2.67
2023-03-11T11:15:29.601Z,2.53
2023-03-11T11:16:35.557Z,2.67
2023-03-11T11:17:37.240Z,2.60
2023-03-11T11:18:46.632Z,3.10
2023-03-11T11:19:51.167Z,3.50
2023-03-11T11:21:03.607Z,2.92
2023-03-11T11:22:06.660Z,3.08
2023-03-11T11:23:27.508Z,3.45
2023-03-11T11:24:31.052Z,2.55
2023-03-11T11:25:35.683Z,3.08
2023-03-11T11:26:38.300Z,2.92
2023-03-11T11:27:56.062Z,3.15
2023-03-11T11:29:14.756Z,3.45
2023-03-11T11:30:19.094Z,3.35
2023-03-11T11:31:25.149Z,3.50
2023-03-11T11:32:27.731Z,4.07
2023-03-11T11:33:32.526Z,3.70
2023-03-11T11:34:34.939Z,3.25
2023-03-11T11:35:51.658Z,3.20
2023-03-11T11:36:54.446Z,3.58
2023-03-11T11:38:04.260Z,3.25
2023-03-11T11:39:16.536Z,3.17
2023-03-11T11:40:26.621Z,2.95
2023-03-11T11:41:30.596Z,2.60
2023-03-11T11:42:33.589Z,2.75
2023-03-11T11:43:48.076Z,2.80
2023-03-11T11:44:53.156Z,2.67
2023-03-11T11:45:58.737Z,2.72
2023-03-11T11:47:06.491Z,3.15
2023-03-11T11:48:19.252Z,2.60
2023-03-11T11:49:24.276Z,2.78
2023-03-11T11:50:33.485Z,2.70
2023-03-11T11:51:41.502Z,2.70
2023-03-11T11:52:47.457Z,2.75
2023-03-11T11:53:59.659Z,2.55
2023-03-11T11:55:05.034Z,2.70
2023-03-11T11:56:07.706Z,2.70
2023-03-11T11:57:12.601Z,2.80
2023-03-11T11:58:15.401Z,2.58
2023-03-11T11:59:21.566Z,2.67
2023-03-11T12:00:30.915Z,2.55
2023-03-11T12:01:43.946Z,2.80
2023-03-11T12:03:03.613Z,2.60
2023-03-11T12:04:22.585Z,2.72
2023-03-11T12:05:30.086Z,2.70
2023-03-11T12:06:40.613Z,2.30
2023-03-11T12:08:00.187Z,2.78
2023-03-11T12:09:16.694Z,2.70
2023-03-11T12:10:27.507Z,3.30
2023-03-11T12:12:45.770Z,2.92
2023-03-11T12:13:55.779Z,3.25
2023-03-11T12:15:08.724Z,2.40
2023-03-11T12:16:21.041Z,3.33
2023-03-11T12:17:26.241Z,3.28
2023-03-11T12:18:32.981Z,3.00
2023-03-11T12:19:42.787Z,3.45
2023-03-11T12:20:50.157Z,3.40
2023-03-11T12:22:24.558Z,3.33
2023-03-11T12:23:42.417Z,3.60
2023-03-11T12:25:09.578Z,3.60
2023-03-11T12:26:18.478Z,3.83
2023-03-11T12:27:25.374Z,4.32
2023-03-11T12:28:38.899Z,2.92
2023-03-11T12:29:43.632Z,3.75
2023-03-11T12:30:50.426Z,3.60
2023-03-11T12:31:53.965Z,3.50
2023-03-11T12:33:00.092Z,3.13
2023-03-11T12:34:05.241Z,3.40
2023-03-11T12:35:10.835Z,4.20
2023-03-11T12:36:24.832Z,3.75
2023-03-11T12:37:26.569Z,3.67
2023-03-11T12:38:34.158Z,4.15
2023-03-11T12:39:35.848Z,3.55
2023-03-11T12:41:00.270Z,3.70
2023-03-11T12:42:23.160Z,3.60
2023-03-11T12:44:10.440Z,3.20
2023-03-11T12:45:50.209Z,3.15
2023-03-11T12:47:20.597Z,2.97
2023-03-11T12:48:34.781Z,5.05
2023-03-11T12:49:39.435Z,3.38
2023-03-11T12:50:43.898Z,3.10
2023-03-11T12:52:03.048Z,2.88
2023-03-11T12:53:06.447Z,3.10
2023-03-11T12:54:27.895Z,3.13
2023-03-11T12:55:34.184Z,2.80
2023-03-11T12:56:41.925Z,3.50
2023-03-11T12:57:55.478Z,3.35
2023-03-11T12:59:22.593Z,3.20
2023-03-11T13:00:48.406Z,2.90
2023-03-11T13:02:14.721Z,2.85
2023-03-11T13:03:34.920Z,2.72
2023-03-11T13:04:46.127Z,2.03
2023-03-11T13:05:57.297Z,2.83
2023-03-11T13:07:32.587Z,2.70
2023-03-11T13:08:44.616Z,2.67
2023-03-11T13:09:47.279Z,2.60
2023-03-11T13:10:50.193Z,3.42
2023-03-11T13:11:54.311Z,2.90
2023-03-11T13:12:56.277Z,2.97
2023-03-11T13:14:12.415Z,3.08
2023-03-11T13:15:32.161Z,3.40
2023-03-11T13:16:40.336Z,3.22
2023-03-11T13:17:42.905Z,3.30
2023-03-11T13:18:47.876Z,3.15
2023-03-11T13:19:53.409Z,3.40
2023-03-11T13:20:57.971Z,3.40
2023-03-11T13:22:02.523Z,3.63
2023-03-11T13:23:30.167Z,3.42
2023-03-11T13:24:50.332Z,3.67
2023-03-11T13:26:32.161Z,3.53
2023-03-11T13:27:43.142Z,3.53
2023-03-11T13:29:00.090Z,3.50
2023-03-11T13:30:12.865Z,3.30
2023-03-11T13:31:33.639Z,3.40
2023-03-11T13:32:51.845Z,2.47
2023-03-11T13:33:57.087Z,3.40
2023-03-11T13:35:11.756Z,3.17
2023-03-11T13:36:26.511Z,3.22
2023-03-11T13:37:42.349Z,3.28
2023-03-11T13:39:01.563Z,3.28
2023-03-11T13:40:15.332Z,3.42
2023-03-11T13:41:22.615Z,3.78
2023-03-11T13:42:32.068Z,4.10
2023-03-11T13:43:36.837Z,3.33
2023-03-11T13:44:42.898Z,3.40
2023-03-11T13:45:52.675Z,4.03
2023-03-11T13:47:00.603Z,3.30
2023-03-11T13:48:08.840Z,3.45
2023-03-11T13:49:27.947Z,3.10
2023-03-11T13:50:36.016Z,3.40
2023-03-11T13:51:44.669Z,3.40
2023-03-11T13:52:50.400Z,2.75
2023-03-11T13:53:58.019Z,3.20
2023-03-11T13:55:07.389Z,2.53
2023-03-11T13:56:20.292Z,2.40
2023-03-11T13:57:34.066Z,3.03
2023-03-11T13:58:38.692Z,2.97
2023-03-11T13:59:40.955Z,2.47
2023-03-11T14:00:51.215Z,2.92
2023-03-11T14:01:56.231Z,2.67
2023-03-11T14:03:03.691Z,2.65
2023-03-11T14:04:11.533Z,3.15
2023-03-11T14:05:18.839Z,2.90
2023-03-11T14:06:22.361Z,2.83
2023-03-11T14:07:27.778Z,2.60
2023-03-11T14:08:33.056Z,2.90
2023-03-11T14:09:35.205Z,2.83
2023-03-11T14:10:38.605Z,2.60
2023-03-11T14:11:43.807Z,3.00
2023-03-11T14:12:47.768Z,2.70
2023-03-11T14:13:54.267Z,2.60
2023-03-11T14:15:01.296Z,3.08
2023-03-11T14:16:09.504Z,3.40
2023-03-11T14:17:15.845Z,3.33
2023-03-11T14:18:34.855Z,2.90
2023-03-11T14:19:37.333Z,3.40
2023-03-11T14:20:40.961Z,3.80
2023-03-11T14:21:44.329Z,3.65
2023-03-11T14:22:49.683Z,3.25
2023-03-11T14:23:54.827Z,4.03
2023-03-11T14:24:58.613Z,3.10
2023-03-11T14:26:05.888Z,3.08
2023-03-11T14:27:11.428Z,3.55
2023-03-11T14:28:20.238Z,3.35
2023-03-11T14:29:32.393Z,3.28
2023-03-11T14:30:36.497Z,3.58